Time;durP1;ratioP1;P1;durP2;ratioP2;P2;SDS_P1;SDS_P2;PMS_P1;PMS_P2;Temp;Humidity;BMP_temperature;BMP_pressure;BME280_temperature;BME280_humidity;BME280_pressure;Samples;Min_cycle;Max_cycle;Signal;HPM_P1;HPM_P2
2021/08/02 00:02:26;;;;;;;;;0.50;0.50;;;;;;;;4987243;28;47038;-80
2021/08/02 00:04:55;;;;;;;;;0.00;0.00;;;;;;;;4998455;28;47297;-80
2021/08/02 00:07:21;;;;;;;;;0.25;0.25;;;;;;;;5004756;28;47415;-80
2021/08/02 00:09:48;;;;;;;;;0.50;0.50;;;;;;;;5004714;28;47042;-79
2021/08/02 00:12:26;;;;;;;;;0.50;0.25;;;;;;;;5004509;28;47067;-79
2021/08/02 00:14:52;;;;;;;;;3.25;0.50;;;;;;;;5004901;28;46910;-79
2021/08/02 00:17:17;;;;;;;;;2.00;0.50;;;;;;;;5004479;28;46910;-80
2021/08/02 00:19:43;;;;;;;;;2.50;1.00;;;;;;;;5004532;28;47020;-80
2021/08/02 00:22:08;;;;;;;;;2.25;2.25;;;;;;;;5004189;28;46948;-82
2021/08/02 00:24:35;;;;;;;;;0.75;0.50;;;;;;;;5004673;28;47328;-82
2021/08/02 00:27:01;;;;;;;;;0.50;0.00;;;;;;;;5004242;28;47707;-80
2021/08/02 00:29:28;;;;;;;;;2.75;2.75;;;;;;;;5004317;28;46932;-80
2021/08/02 00:31:54;;;;;;;;;1.00;0.50;;;;;;;;5004416;28;46983;-79
2021/08/02 00:34:19;;;;;;;;;1.75;0.50;;;;;;;;5004659;28;46814;-79
2021/08/02 00:36:49;;;;;;;;;1.75;1.75;;;;;;;;5003860;28;47014;-79
2021/08/02 00:39:17;;;;;;;;;2.25;2.00;;;;;;;;5015304;28;46992;-79
2021/08/02 00:41:43;;;;;;;;;1.00;0.50;;;;;;;;4993065;28;46809;-79
2021/08/02 00:44:08;;;;;;;;;1.00;1.00;;;;;;;;5013117;28;47275;-79
2021/08/02 00:46:37;;;;;;;;;0.75;0.75;;;;;;;;4999899;28;46995;-79
2021/08/02 00:49:04;;;;;;;;;0.50;0.50;;;;;;;;5001007;28;47086;-79
2021/08/02 00:51:33;;;;;;;;;4.00;0.50;;;;;;;;5000652;28;46968;-79
2021/08/02 00:54:00;;;;;;;;;2.25;1.50;;;;;;;;5001088;28;47299;-79
2021/08/02 00:56:29;;;;;;;;;1.50;1.50;;;;;;;;5009960;28;47746;-80
2021/08/02 00:58:55;;;;;;;;;0.75;0.75;;;;;;;;4991576;28;47600;-80
2021/08/02 01:01:21;;;;;;;;;1.25;1.00;;;;;;;;5000831;28;47173;-80
2021/08/02 01:03:46;;;;;;;;;2.25;1.25;;;;;;;;4982992;28;47125;-79
2021/08/02 01:06:11;;;;;;;;;1.50;0.50;;;;;;;;5000219;28;46878;-80
2021/08/02 01:08:38;;;;;;;;;2.25;0.75;;;;;;;;5000664;28;46928;-80
2021/08/02 01:11:06;;;;;;;;;2.00;1.75;;;;;;;;5000576;28;46844;-80
2021/08/02 01:13:33;;;;;;;;;2.00;2.00;;;;;;;;5000851;28;47113;-79
2021/08/02 01:16:00;;;;;;;;;3.00;1.75;;;;;;;;5000218;28;47038;-79
2021/08/02 01:18:25;;;;;;;;;2.75;1.00;;;;;;;;5000826;28;47039;-79
2021/08/02 01:20:52;;;;;;;;;2.00;2.00;;;;;;;;4995547;28;46988;-80
2021/08/02 01:23:18;;;;;;;;;2.00;2.00;;;;;;;;5000783;28;47147;-80
2021/08/02 01:25:43;;;;;;;;;1.75;1.75;;;;;;;;5000013;28;46871;-80
2021/08/02 01:28:15;;;;;;;;;2.50;1.00;;;;;;;;4982503;28;47079;-80
2021/08/02 01:30:46;;;;;;;;;2.00;2.00;;;;;;;;5000505;28;46937;-80
2021/08/02 01:33:12;;;;;;;;;3.75;2.75;;;;;;;;4992676;28;46997;-80
2021/08/02 01:35:38;;;;;;;;;3.50;2.00;;;;;;;;4999994;28;48192;-80
2021/08/02 01:38:04;;;;;;;;;2.00;2.00;;;;;;;;5000053;28;47069;-80
2021/08/02 01:40:29;;;;;;;;;1.00;1.00;;;;;;;;5000434;28;47143;-79
2021/08/02 01:42:57;;;;;;;;;1.00;1.00;;;;;;;;5000198;28;46995;-79
2021/08/02 01:45:23;;;;;;;;;1.75;1.75;;;;;;;;5000207;28;47720;-79
2021/08/02 01:48:07;;;;;;;;;1.75;1.25;;;;;;;;4999894;28;46890;-79
2021/08/02 01:50:34;;;;;;;;;2.00;2.00;;;;;;;;4999753;28;46953;-79
2021/08/02 01:53:12;;;;;;;;;2.00;2.00;;;;;;;;5000247;28;46827;-79
2021/08/02 01:55:37;;;;;;;;;3.00;2.00;;;;;;;;4999907;28;47843;-80
2021/08/02 01:58:06;;;;;;;;;5.50;3.00;;;;;;;;4985804;28;46958;-79
2021/08/02 02:00:33;;;;;;;;;2.25;2.00;;;;;;;;4999602;28;47020;-79
2021/08/02 02:02:58;;;;;;;;;2.50;2.00;;;;;;;;5000044;28;46859;-79
2021/08/02 02:05:27;;;;;;;;;1.25;1.25;;;;;;;;4981742;28;49682;-79
2021/08/02 02:07:58;;;;;;;;;4.00;2.75;;;;;;;;4999542;28;46957;-79
2021/08/02 02:10:25;;;;;;;;;2.50;2.50;;;;;;;;4982103;28;46886;-79
2021/08/02 02:12:52;;;;;;;;;3.00;2.00;;;;;;;;4999631;28;47123;-79
2021/08/02 02:15:18;;;;;;;;;3.50;2.75;;;;;;;;5012579;28;46973;-79
2021/08/02 02:17:43;;;;;;;;;2.00;2.00;;;;;;;;4999594;28;47057;-79
2021/08/02 02:20:10;;;;;;;;;4.75;2.25;;;;;;;;4999341;28;46976;-79
2021/08/02 02:22:35;;;;;;;;;3.00;3.00;;;;;;;;4999677;28;47120;-79
2021/08/02 02:25:01;;;;;;;;;3.50;3.50;;;;;;;;4999347;28;46954;-79
2021/08/02 02:27:26;;;;;;;;;2.00;2.00;;;;;;;;4999291;28;46858;-79
2021/08/02 02:29:52;;;;;;;;;3.25;2.00;;;;;;;;4999368;28;47013;-79
2021/08/02 02:32:19;;;;;;;;;3.50;2.00;;;;;;;;4999795;28;46836;-79
2021/08/02 02:34:45;;;;;;;;;3.75;3.00;;;;;;;;4998905;28;47001;-79
2021/08/02 02:37:11;;;;;;;;;4.00;3.00;;;;;;;;4999479;28;46971;-79
2021/08/02 02:39:37;;;;;;;;;3.25;2.75;;;;;;;;4999290;28;47185;-79
2021/08/02 02:42:03;;;;;;;;;4.00;1.75;;;;;;;;4999834;28;46913;-79
2021/08/02 02:44:29;;;;;;;;;6.00;5.00;;;;;;;;4998865;28;47830;-79
2021/08/02 02:46:54;;;;;;;;;4.75;3.75;;;;;;;;4999390;28;46812;-79
2021/08/02 02:49:20;;;;;;;;;3.00;3.00;;;;;;;;4999009;28;47008;-79
2021/08/02 02:51:47;;;;;;;;;5.50;3.75;;;;;;;;5006534;28;47042;-79
2021/08/02 02:54:13;;;;;;;;;3.00;3.00;;;;;;;;5004473;28;47865;-79
2021/08/02 02:56:39;;;;;;;;;3.00;3.00;;;;;;;;4993313;28;46878;-79
2021/08/02 02:59:04;;;;;;;;;4.50;3.00;;;;;;;;4991022;28;47046;-79
2021/08/02 03:01:34;;;;;;;;;4.25;3.00;;;;;;;;4998939;28;46820;-79
2021/08/02 03:04:00;;;;;;;;;3.00;3.00;;;;;;;;5004819;28;47513;-80
2021/08/02 03:06:28;;;;;;;;;2.00;2.00;;;;;;;;4998551;28;47074;-79
2021/08/02 03:08:54;;;;;;;;;4.75;4.25;;;;;;;;4998246;28;46890;-79
2021/08/02 03:11:20;;;;;;;;;4.25;4.00;;;;;;;;4999047;28;47240;-80
2021/08/02 03:13:46;;;;;;;;;4.50;3.00;;;;;;;;5012064;28;47944;-79
2021/08/02 03:16:11;;;;;;;;;4.75;3.00;;;;;;;;4987481;28;46873;-79
2021/08/02 03:18:36;;;;;;;;;5.75;2.75;;;;;;;;5005584;28;47119;-79
2021/08/02 03:21:02;;;;;;;;;4.50;3.50;;;;;;;;4980595;28;47362;-80
2021/08/02 03:23:29;;;;;;;;;4.00;3.25;;;;;;;;4998643;28;47002;-80
2021/08/02 03:26:05;;;;;;;;;4.00;4.00;;;;;;;;4998614;28;46989;-80
2021/08/02 03:28:30;;;;;;;;;6.00;4.00;;;;;;;;4998737;28;47057;-79
2021/08/02 03:30:57;;;;;;;;;3.25;3.25;;;;;;;;4998828;28;46985;-79
2021/08/02 03:33:25;;;;;;;;;6.75;5.00;;;;;;;;4998455;28;47020;-79
2021/08/02 03:35:52;;;;;;;;;4.00;3.00;;;;;;;;4998200;28;46858;-79
2021/08/02 03:38:18;;;;;;;;;5.00;4.00;;;;;;;;4998433;28;47140;-79
2021/08/02 03:40:46;;;;;;;;;3.00;3.00;;;;;;;;4999024;28;46976;-79
2021/08/02 03:43:11;;;;;;;;;6.00;5.00;;;;;;;;4998227;28;47197;-79
2021/08/02 03:45:37;;;;;;;;;5.75;4.75;;;;;;;;4998628;28;46867;-79
2021/08/02 03:48:03;;;;;;;;;3.25;2.50;;;;;;;;4998330;28;46867;-79
2021/08/02 03:50:29;;;;;;;;;5.00;4.00;;;;;;;;4998492;28;46724;-79
2021/08/02 03:52:54;;;;;;;;;5.00;4.00;;;;;;;;4998195;28;47590;-79
2021/08/02 03:55:21;;;;;;;;;6.75;5.50;;;;;;;;4998455;28;46943;-79
2021/08/02 03:57:47;;;;;;;;;3.00;3.00;;;;;;;;4984519;28;46879;-79
2021/08/02 04:00:12;;;;;;;;;4.00;4.00;;;;;;;;5006245;28;46981;-79
2021/08/02 04:02:38;;;;;;;;;4.50;3.75;;;;;;;;5003002;28;47243;-79
2021/08/02 04:05:04;;;;;;;;;7.50;4.00;;;;;;;;4997804;28;47118;-79
2021/08/02 04:07:29;;;;;;;;;3.25;3.25;;;;;;;;4998253;28;46859;-79
2021/08/02 04:09:54;;;;;;;;;5.00;4.75;;;;;;;;4998314;28;46945;-79
2021/08/02 04:12:20;;;;;;;;;6.50;4.00;;;;;;;;4997747;28;48336;-79
2021/08/02 04:14:45;;;;;;;;;5.00;4.00;;;;;;;;4998173;28;47033;-79
2021/08/02 04:17:10;;;;;;;;;7.50;5.75;;;;;;;;4998004;28;47051;-79
2021/08/02 04:19:36;;;;;;;;;4.75;3.75;;;;;;;;4998643;28;46819;-79
2021/08/02 04:22:01;;;;;;;;;5.00;4.00;;;;;;;;5002896;28;47016;-79
2021/08/02 04:24:26;;;;;;;;;5.75;5.25;;;;;;;;5012982;28;47018;-79
2021/08/02 04:26:52;;;;;;;;;5.00;4.00;;;;;;;;4983543;28;47142;-79
2021/08/02 04:29:17;;;;;;;;;8.25;6.50;;;;;;;;5001503;28;47017;-79
2021/08/02 04:31:43;;;;;;;;;8.00;7.75;;;;;;;;5003100;28;46921;-79
2021/08/02 04:34:08;;;;;;;;;6.75;5.50;;;;;;;;5009321;28;46876;-79
2021/08/02 04:36:34;;;;;;;;;6.75;6.75;;;;;;;;5016098;28;46861;-79
2021/08/02 04:38:59;;;;;;;;;7.75;6.00;;;;;;;;5012622;28;46837;-79
2021/08/02 04:41:24;;;;;;;;;5.75;5.00;;;;;;;;5000991;28;46882;-79
2021/08/02 04:43:49;;;;;;;;;8.00;5.00;;;;;;;;4983154;28;46986;-79
2021/08/02 04:46:15;;;;;;;;;5.75;5.75;;;;;;;;5001173;28;47210;-79
2021/08/02 04:48:41;;;;;;;;;9.00;5.00;;;;;;;;5001152;28;46945;-79
2021/08/02 04:51:06;;;;;;;;;10.75;6.00;;;;;;;;5002356;28;47848;-79
2021/08/02 04:53:31;;;;;;;;;7.00;6.00;;;;;;;;5012574;28;47046;-79
2021/08/02 04:55:57;;;;;;;;;6.00;5.50;;;;;;;;4994876;28;47057;-79
2021/08/02 04:58:22;;;;;;;;;4.25;4.25;;;;;;;;4982977;28;47033;-79
2021/08/02 05:00:47;;;;;;;;;6.50;6.50;;;;;;;;5000610;28;46974;-79
2021/08/02 05:03:13;;;;;;;;;6.50;5.75;;;;;;;;5000684;28;47012;-79
2021/08/02 05:05:38;;;;;;;;;7.50;7.50;;;;;;;;5000710;28;46865;-79
2021/08/02 05:08:04;;;;;;;;;11.25;9.00;;;;;;;;5000774;28;47046;-79
2021/08/02 05:10:29;;;;;;;;;6.50;6.00;;;;;;;;5000718;28;47068;-79
2021/08/02 05:12:55;;;;;;;;;6.25;5.25;;;;;;;;4987312;28;47039;-79
2021/08/02 05:15:20;;;;;;;;;6.00;6.00;;;;;;;;5014021;28;46976;-79
2021/08/02 05:17:46;;;;;;;;;8.00;7.00;;;;;;;;5013905;28;46817;-79
2021/08/02 05:20:11;;;;;;;;;9.25;7.25;;;;;;;;5000241;28;47729;-79
2021/08/02 05:22:37;;;;;;;;;8.25;6.50;;;;;;;;5000088;28;46795;-79
2021/08/02 05:25:03;;;;;;;;;6.00;5.75;;;;;;;;5000568;28;47980;-78
2021/08/02 05:27:28;;;;;;;;;7.25;6.00;;;;;;;;4997628;28;47226;-78
2021/08/02 05:29:54;;;;;;;;;6.50;4.75;;;;;;;;4994978;28;47072;-79
2021/08/02 05:32:19;;;;;;;;;6.00;5.25;;;;;;;;5012258;28;46853;-78
2021/08/02 05:34:44;;;;;;;;;7.75;5.00;;;;;;;;4981822;28;46918;-78
2021/08/02 05:37:10;;;;;;;;;6.75;5.75;;;;;;;;4998355;28;46786;-78
2021/08/02 05:39:37;;;;;;;;;5.00;5.00;;;;;;;;4997124;28;48127;-79
2021/08/02 05:42:02;;;;;;;;;8.75;5.00;;;;;;;;5000144;28;47032;-79
2021/08/02 05:44:28;;;;;;;;;6.50;5.00;;;;;;;;5003721;28;46945;-79
2021/08/02 05:46:53;;;;;;;;;4.00;4.00;;;;;;;;4978284;28;46974;-78
2021/08/02 05:49:18;;;;;;;;;2.75;2.50;;;;;;;;4981278;28;49485;-79
2021/08/02 05:51:44;;;;;;;;;8.00;4.25;;;;;;;;4999828;28;47191;-79
2021/08/02 05:54:09;;;;;;;;;7.00;6.00;;;;;;;;5000567;28;47104;-79
2021/08/02 05:56:34;;;;;;;;;5.25;3.00;;;;;;;;4978406;28;46922;-79
2021/08/02 05:59:00;;;;;;;;;5.00;5.00;;;;;;;;4995577;28;47969;-79
2021/08/02 06:01:25;;;;;;;;;3.50;3.00;;;;;;;;4999627;28;46980;-79
2021/08/02 06:03:51;;;;;;;;;4.50;2.75;;;;;;;;4999223;28;46913;-79
2021/08/02 06:06:17;;;;;;;;;4.50;4.00;;;;;;;;4999682;28;47177;-79
2021/08/02 06:08:42;;;;;;;;;7.00;3.00;;;;;;;;4999434;28;46986;-79
2021/08/02 06:11:08;;;;;;;;;6.00;5.00;;;;;;;;4994838;28;47072;-79
2021/08/02 06:13:33;;;;;;;;;4.00;3.75;;;;;;;;4999270;28;47039;-79
2021/08/02 06:15:59;;;;;;;;;5.25;3.25;;;;;;;;4999649;28;47185;-79
2021/08/02 06:18:24;;;;;;;;;4.00;2.75;;;;;;;;5005696;28;46879;-79
2021/08/02 06:20:49;;;;;;;;;4.75;4.75;;;;;;;;5014689;28;46838;-79
2021/08/02 06:23:15;;;;;;;;;4.00;3.25;;;;;;;;4998752;28;46989;-79
2021/08/02 06:25:40;;;;;;;;;4.00;3.00;;;;;;;;4999367;28;46752;-78
2021/08/02 06:28:05;;;;;;;;;5.25;3.50;;;;;;;;5005066;28;46919;-79
2021/08/02 06:30:31;;;;;;;;;3.25;3.25;;;;;;;;5001201;28;46938;-79
2021/08/02 06:32:56;;;;;;;;;5.50;3.50;;;;;;;;4999405;28;46849;-79
2021/08/02 06:35:21;;;;;;;;;4.75;3.50;;;;;;;;4999350;28;47064;-79
2021/08/02 06:37:47;;;;;;;;;3.25;2.50;;;;;;;;4981381;28;48653;-79
2021/08/02 06:40:13;;;;;;;;;3.50;2.50;;;;;;;;4980928;28;46990;-79
2021/08/02 06:42:39;;;;;;;;;3.25;2.00;;;;;;;;5002076;28;47036;-79
2021/08/02 06:45:05;;;;;;;;;5.75;3.75;;;;;;;;5005203;28;47016;-80
2021/08/02 06:47:30;;;;;;;;;3.25;3.25;;;;;;;;5004992;28;48102;-79
2021/08/02 06:49:55;;;;;;;;;2.25;2.00;;;;;;;;4985888;28;46997;-79
2021/08/02 06:52:20;;;;;;;;;4.00;3.25;;;;;;;;5000487;28;46882;-79
2021/08/02 06:54:46;;;;;;;;;4.25;3.75;;;;;;;;5000478;28;47220;-79
2021/08/02 06:57:11;;;;;;;;;3.25;2.75;;;;;;;;4992652;28;47056;-79
2021/08/02 06:59:36;;;;;;;;;5.50;3.50;;;;;;;;4984928;28;46951;-79
2021/08/02 07:02:02;;;;;;;;;5.00;3.25;;;;;;;;4989538;28;47129;-79
2021/08/02 07:04:27;;;;;;;;;4.75;4.00;;;;;;;;4998894;28;46874;-79
2021/08/02 07:06:53;;;;;;;;;4.25;3.00;;;;;;;;5002529;28;47853;-79
2021/08/02 07:09:18;;;;;;;;;1.75;1.00;;;;;;;;4999048;28;46877;-79
2021/08/02 07:11:43;;;;;;;;;5.50;4.00;;;;;;;;4998626;28;46829;-79
2021/08/02 07:14:08;;;;;;;;;4.25;4.00;;;;;;;;4998920;28;47078;-79
2021/08/02 07:16:34;;;;;;;;;5.50;5.50;;;;;;;;4997738;28;48143;-80
2021/08/02 07:18:59;;;;;;;;;3.50;2.50;;;;;;;;4994640;28;46811;-80
2021/08/02 07:21:25;;;;;;;;;3.00;3.00;;;;;;;;4998425;28;46903;-79
2021/08/02 07:23:50;;;;;;;;;5.00;4.00;;;;;;;;4998548;28;46797;-79
2021/08/02 07:26:16;;;;;;;;;3.00;3.00;;;;;;;;4980854;28;49746;-80
2021/08/02 07:28:43;;;;;;;;;5.00;2.00;;;;;;;;4998192;28;47158;-79
2021/08/02 07:31:08;;;;;;;;;3.50;2.75;;;;;;;;4998663;28;47032;-79
2021/08/02 07:33:33;;;;;;;;;4.50;3.00;;;;;;;;5006439;28;47200;-79
2021/08/02 07:35:59;;;;;;;;;4.75;3.00;;;;;;;;4985145;28;48141;-79
2021/08/02 07:38:25;;;;;;;;;6.75;3.50;;;;;;;;4980512;28;47584;-79
2021/08/02 07:40:50;;;;;;;;;5.00;4.00;;;;;;;;4998301;28;46984;-79
2021/08/02 07:43:15;;;;;;;;;6.00;4.00;;;;;;;;4980596;28;47310;-79
2021/08/02 07:45:41;;;;;;;;;6.00;4.50;;;;;;;;4998166;28;46930;-79
2021/08/02 07:48:06;;;;;;;;;7.00;4.00;;;;;;;;4980515;28;46962;-79
2021/08/02 07:50:31;;;;;;;;;4.50;3.00;;;;;;;;4997948;28;47087;-79
2021/08/02 07:52:57;;;;;;;;;4.25;3.50;;;;;;;;4980627;28;47025;-79
2021/08/02 07:55:22;;;;;;;;;6.00;5.00;;;;;;;;4995088;28;46760;-79
2021/08/02 07:57:48;;;;;;;;;3.50;3.50;;;;;;;;4978799;28;47149;-79
2021/08/02 08:00:16;;;;;;;;;5.50;4.25;;;;;;;;5000097;28;47053;-79
2021/08/02 08:02:42;;;;;;;;;4.00;4.00;;;;;;;;4993952;28;47125;-79
2021/08/02 08:05:08;;;;;;;;;6.75;4.00;;;;;;;;4980744;28;47156;-79
2021/08/02 08:07:43;;;;;;;;;4.00;2.00;;;;;;;;5001463;28;47041;-79
2021/08/02 08:10:10;;;;;;;;;6.00;4.00;;;;;;;;5017584;28;47209;-79
2021/08/02 08:12:35;;;;;;;;;4.50;3.00;;;;;;;;4980413;28;47225;-80
2021/08/02 08:15:01;;;;;;;;;0.00;0.00;;;;;;;;5000917;28;47000;-79
2021/08/02 08:17:26;;;;;;;;;5.00;3.25;;;;;;;;4998380;28;47016;-79
2021/08/02 08:19:52;;;;;;;;;4.00;4.00;;;;;;;;5000520;28;46994;-79
2021/08/02 08:22:17;;;;;;;;;5.00;3.00;;;;;;;;5001252;28;47193;-79
2021/08/02 08:24:42;;;;;;;;;4.00;3.00;;;;;;;;4990844;28;48285;-79
2021/08/02 08:27:08;;;;;;;;;5.00;3.50;;;;;;;;4986510;28;47038;-80
2021/08/02 08:29:33;;;;;;;;;3.00;3.00;;;;;;;;5000643;28;46838;-79
2021/08/02 08:31:58;;;;;;;;;5.00;3.00;;;;;;;;5008558;28;47171;-79
2021/08/02 08:34:24;;;;;;;;;3.25;3.25;;;;;;;;5005747;28;48009;-79
2021/08/02 08:36:49;;;;;;;;;3.75;3.00;;;;;;;;4991222;28;46922;-79
2021/08/02 08:39:14;;;;;;;;;3.75;3.75;;;;;;;;5002277;28;47012;-79
2021/08/02 08:41:41;;;;;;;;;2.00;2.00;;;;;;;;4989323;28;47138;-79
2021/08/02 08:44:07;;;;;;;;;4.25;3.00;;;;;;;;4988380;28;47354;-78
2021/08/02 08:46:33;;;;;;;;;4.00;3.75;;;;;;;;5000689;28;46862;-79
2021/08/02 08:48:59;;;;;;;;;6.00;3.50;;;;;;;;5000708;28;46921;-79
2021/08/02 08:51:26;;;;;;;;;4.25;2.75;;;;;;;;5003938;28;47125;-80
2021/08/02 08:53:52;;;;;;;;;3.25;3.00;;;;;;;;5017635;28;46996;-79
2021/08/02 08:56:18;;;;;;;;;6.25;2.75;;;;;;;;4990588;28;47968;-79
2021/08/02 08:58:44;;;;;;;;;5.00;3.00;;;;;;;;5010661;28;46935;-79
2021/08/02 09:01:09;;;;;;;;;3.50;2.50;;;;;;;;5000406;28;46729;-79
2021/08/02 09:03:35;;;;;;;;;2.75;2.75;;;;;;;;5003701;28;46962;-78
2021/08/02 09:06:04;;;;;;;;;2.00;2.00;;;;;;;;4999209;28;46741;-79
2021/08/02 09:08:30;;;;;;;;;3.00;2.00;;;;;;;;4982705;28;47002;-79
2021/08/02 09:10:57;;;;;;;;;4.75;3.00;;;;;;;;5000233;28;47043;-79
2021/08/02 09:13:32;;;;;;;;;4.00;3.50;;;;;;;;4982441;28;46894;-78
2021/08/02 09:15:58;;;;;;;;;2.50;2.00;;;;;;;;4995372;28;47096;-78
2021/08/02 09:18:24;;;;;;;;;4.50;3.00;;;;;;;;4996892;28;47056;-79
2021/08/02 09:21:02;;;;;;;;;3.25;3.00;;;;;;;;5006199;28;46814;-78
2021/08/02 09:23:28;;;;;;;;;2.25;2.25;;;;;;;;5000035;28;47923;-79
2021/08/02 09:25:54;;;;;;;;;4.75;4.00;;;;;;;;4994845;28;47056;-79
2021/08/02 09:28:21;;;;;;;;;2.75;2.75;;;;;;;;4999135;28;47001;-80
2021/08/02 09:31:00;;;;;;;;;6.75;5.50;;;;;;;;5010617;28;47994;-80
2021/08/02 09:33:26;;;;;;;;;2.00;2.00;;;;;;;;4996647;28;47797;-79
2021/08/02 09:35:52;;;;;;;;;4.00;2.75;;;;;;;;4999525;28;47196;-80
2021/08/02 09:38:20;;;;;;;;;2.50;2.50;;;;;;;;5000057;28;46992;-80
2021/08/02 09:40:53;;;;;;;;;1.00;1.00;;;;;;;;5000240;28;47169;-80
2021/08/02 09:43:23;;;;;;;;;5.00;4.75;;;;;;;;4999818;28;49894;-79
2021/08/02 09:45:50;;;;;;;;;4.25;2.50;;;;;;;;4995279;28;47943;-80
2021/08/02 09:48:18;;;;;;;;;2.25;2.25;;;;;;;;4996878;28;47084;-81
2021/08/02 09:50:44;;;;;;;;;2.00;2.00;;;;;;;;4981925;28;47351;-81
2021/08/02 09:53:13;;;;;;;;;6.00;3.25;;;;;;;;4996324;28;48016;-80
2021/08/02 09:55:39;;;;;;;;;3.25;1.75;;;;;;;;4996600;28;46807;-80
2021/08/02 09:58:05;;;;;;;;;4.00;3.00;;;;;;;;4992464;28;47031;-79
2021/08/02 10:00:32;;;;;;;;;3.75;3.00;;;;;;;;4999332;28;47200;-79
2021/08/02 10:02:59;;;;;;;;;1.50;1.00;;;;;;;;4999562;28;47116;-79
2021/08/02 10:05:25;;;;;;;;;3.25;2.00;;;;;;;;4999361;28;47101;-79
2021/08/02 10:07:50;;;;;;;;;3.75;3.00;;;;;;;;4999551;28;47083;-79
2021/08/02 10:10:16;;;;;;;;;2.50;2.00;;;;;;;;4999752;28;47240;-79
2021/08/02 10:12:43;;;;;;;;;3.25;3.25;;;;;;;;4999327;28;47120;-79
2021/08/02 10:15:11;;;;;;;;;1.50;1.00;;;;;;;;4999485;28;46935;-79
2021/08/02 10:17:38;;;;;;;;;4.00;3.00;;;;;;;;4998503;28;47072;-79
2021/08/02 10:20:04;;;;;;;;;2.00;2.00;;;;;;;;4999439;28;46968;-79
2021/08/02 10:22:30;;;;;;;;;2.75;2.75;;;;;;;;4999125;28;47065;-79
2021/08/02 10:24:56;;;;;;;;;2.00;2.00;;;;;;;;4999461;28;46926;-76
2021/08/02 10:27:29;;;;;;;;;1.75;1.75;;;;;;;;4981275;28;46938;-75
2021/08/02 10:29:54;;;;;;;;;3.00;2.00;;;;;;;;4979931;28;47005;-77
2021/08/02 10:32:32;;;;;;;;;9.00;7.50;;;;;;;;5006863;28;46983;-76
2021/08/02 10:34:59;;;;;;;;;3.25;2.50;;;;;;;;4998572;28;47007;-77
2021/08/02 10:37:29;;;;;;;;;3.75;3.50;;;;;;;;4998501;28;46881;-76
2021/08/02 10:40:02;;;;;;;;;2.00;2.00;;;;;;;;4998880;28;47240;-76
2021/08/02 10:42:27;;;;;;;;;3.25;1.50;;;;;;;;4980997;28;49722;-76
2021/08/02 10:44:56;;;;;;;;;2.25;1.50;;;;;;;;4998711;28;46898;-76
2021/08/02 10:47:22;;;;;;;;;1.00;1.00;;;;;;;;4987177;28;47028;-76
2021/08/02 10:49:48;;;;;;;;;3.25;1.25;;;;;;;;4998111;28;46783;-76
2021/08/02 10:52:24;;;;;;;;;2.25;1.00;;;;;;;;4998789;28;46855;-77
2021/08/02 10:54:50;;;;;;;;;1.00;1.00;;;;;;;;4986957;28;46918;-76
2021/08/02 10:57:16;;;;;;;;;1.00;0.50;;;;;;;;4997386;28;47217;-76
2021/08/02 10:59:41;;;;;;;;;1.00;1.00;;;;;;;;4998735;28;46747;-76
2021/08/02 11:02:11;;;;;;;;;4.50;2.00;;;;;;;;4998537;28;47909;-77
2021/08/02 11:04:37;;;;;;;;;3.00;2.00;;;;;;;;4980864;28;46973;-76
2021/08/02 11:07:02;;;;;;;;;1.00;1.00;;;;;;;;4998698;28;46796;-75
2021/08/02 11:09:32;;;;;;;;;5.50;4.00;;;;;;;;4998834;28;47364;-76
2021/08/02 11:12:03;;;;;;;;;3.00;2.00;;;;;;;;4998509;28;46970;-76
2021/08/02 11:14:29;;;;;;;;;2.00;2.00;;;;;;;;4998327;28;46935;-75
2021/08/02 11:16:54;;;;;;;;;3.75;3.75;;;;;;;;4987156;28;46887;-75
2021/08/02 11:19:24;;;;;;;;;2.00;2.00;;;;;;;;5001809;28;46948;-76
2021/08/02 11:21:56;;;;;;;;;3.00;1.00;;;;;;;;4998337;28;46996;-76
2021/08/02 11:24:22;;;;;;;;;1.50;1.50;;;;;;;;4998346;28;47107;-76
2021/08/02 11:26:54;;;;;;;;;1.00;1.00;;;;;;;;4974519;28;47056;-76
2021/08/02 11:29:21;;;;;;;;;2.00;2.00;;;;;;;;4995872;28;46917;-76
2021/08/02 11:32:05;;;;;;;;;1.50;1.00;;;;;;;;4998079;28;46916;-76
2021/08/02 11:34:31;;;;;;;;;3.00;1.00;;;;;;;;4993501;28;46990;-76
2021/08/02 11:36:57;;;;;;;;;2.25;2.00;;;;;;;;4997941;28;46868;-76
2021/08/02 11:39:23;;;;;;;;;1.75;1.50;;;;;;;;4997562;28;47056;-76
2021/08/02 11:41:57;;;;;;;;;4.00;2.00;;;;;;;;4997982;28;47081;-76
2021/08/02 11:44:23;;;;;;;;;1.00;1.00;;;;;;;;4980377;28;47910;-76
2021/08/02 11:46:48;;;;;;;;;0.25;0.25;;;;;;;;4990853;28;46897;-76
2021/08/02 11:49:14;;;;;;;;;2.50;2.00;;;;;;;;4998115;28;46910;-76
2021/08/02 11:51:39;;;;;;;;;2.50;2.00;;;;;;;;4997682;28;47802;-76
2021/08/02 11:54:05;;;;;;;;;4.50;4.50;;;;;;;;4998108;28;47032;-76
2021/08/02 11:56:31;;;;;;;;;1.75;1.75;;;;;;;;4993503;28;46929;-76
2021/08/02 11:58:56;;;;;;;;;3.00;2.00;;;;;;;;4990286;28;47189;-77
2021/08/02 12:01:22;;;;;;;;;1.50;0.75;;;;;;;;4998060;28;48147;-77
2021/08/02 12:03:47;;;;;;;;;1.00;1.00;;;;;;;;4980137;28;47697;-77
2021/08/02 12:06:12;;;;;;;;;5.00;4.25;;;;;;;;4980125;28;46993;-78
2021/08/02 12:08:47;;;;;;;;;2.00;2.00;;;;;;;;4998162;28;46815;-78
2021/08/02 12:11:13;;;;;;;;;2.75;2.00;;;;;;;;4997847;28;47687;-78
2021/08/02 12:13:45;;;;;;;;;7.50;6.25;;;;;;;;4997692;28;46791;-77
2021/08/02 12:16:12;;;;;;;;;3.00;3.00;;;;;;;;4998072;28;46955;-77
2021/08/02 12:18:38;;;;;;;;;8.75;7.00;;;;;;;;4979717;28;47086;-77
2021/08/02 12:21:24;;;;;;;;;1.50;1.50;;;;;;;;4978784;28;48326;-77
2021/08/02 12:23:50;;;;;;;;;2.00;2.00;;;;;;;;4988704;28;46977;-78
2021/08/02 12:26:19;;;;;;;;;2.25;2.25;;;;;;;;4997579;28;46787;-78
2021/08/02 12:28:45;;;;;;;;;2.00;2.00;;;;;;;;4998077;28;47310;-78
2021/08/02 12:31:17;;;;;;;;;1.00;1.00;;;;;;;;4997519;28;46969;-78
2021/08/02 12:33:44;;;;;;;;;3.25;3.00;;;;;;;;4997635;28;46971;-78
2021/08/02 12:36:09;;;;;;;;;1.50;1.50;;;;;;;;4997373;28;46866;-78
2021/08/02 12:38:40;;;;;;;;;1.00;1.00;;;;;;;;4997734;28;47028;-77
2021/08/02 12:41:05;;;;;;;;;3.00;3.00;;;;;;;;4988805;28;46860;-77
2021/08/02 12:43:30;;;;;;;;;3.00;2.50;;;;;;;;4977553;28;46885;-77
2021/08/02 12:45:56;;;;;;;;;4.00;3.25;;;;;;;;5001126;28;46785;-78
2021/08/02 12:48:21;;;;;;;;;4.00;3.50;;;;;;;;4983234;28;47137;-78
2021/08/02 12:50:47;;;;;;;;;4.00;3.00;;;;;;;;4982871;28;48481;-77
2021/08/02 12:53:12;;;;;;;;;4.75;2.75;;;;;;;;5000621;28;47069;-77
2021/08/02 12:55:37;;;;;;;;;3.75;3.00;;;;;;;;5000933;28;46992;-82
2021/08/02 12:58:03;;;;;;;;;4.00;3.00;;;;;;;;4979604;28;47077;-79
2021/08/02 13:00:28;;;;;;;;;3.00;3.00;;;;;;;;5000479;28;47606;-79
2021/08/02 13:02:54;;;;;;;;;4.75;4.75;;;;;;;;4981994;28;47031;-79
2021/08/02 13:05:19;;;;;;;;;3.00;3.00;;;;;;;;5000488;28;46977;-80
2021/08/02 13:07:45;;;;;;;;;3.00;3.00;;;;;;;;5000329;28;46935;-77
2021/08/02 13:10:10;;;;;;;;;2.00;2.00;;;;;;;;5000112;28;46994;-76
2021/08/02 13:12:36;;;;;;;;;5.75;3.00;;;;;;;;5000171;28;46819;-76
2021/08/02 13:15:01;;;;;;;;;3.25;2.50;;;;;;;;5000575;28;46912;-77
2021/08/02 13:17:27;;;;;;;;;9.50;9.50;;;;;;;;5000384;28;46910;-76
2021/08/02 13:19:52;;;;;;;;;4.00;4.00;;;;;;;;4999678;28;47704;-76
2021/08/02 13:22:21;;;;;;;;;2.75;1.75;;;;;;;;4999966;28;47060;-76
2021/08/02 13:27:30;;;;;;;;;1.50;1.50;;;;;;;;5000046;28;46870;-74
2021/08/02 13:29:56;;;;;;;;;2.00;2.00;;;;;;;;4999464;28;47620;-83
2021/08/02 13:32:21;;;;;;;;;4.75;2.50;;;;;;;;4999742;28;47055;-83
2021/08/02 13:34:47;;;;;;;;;2.00;2.00;;;;;;;;4987829;28;47248;-95
2021/08/02 13:37:13;;;;;;;;;3.00;3.00;;;;;;;;4982192;28;47278;-83
2021/08/02 13:39:39;;;;;;;;;3.00;2.75;;;;;;;;4999565;28;47050;-83
2021/08/02 13:42:05;;;;;;;;;2.00;2.00;;;;;;;;5010083;28;47003;-83
2021/08/02 13:44:30;;;;;;;;;4.75;3.00;;;;;;;;5000041;28;46952;-83
2021/08/02 13:46:56;;;;;;;;;2.50;2.00;;;;;;;;5000146;28;46928;-84
2021/08/02 13:49:22;;;;;;;;;1.50;1.50;;;;;;;;5000013;28;47828;-80
2021/08/02 13:51:48;;;;;;;;;2.25;2.25;;;;;;;;4990782;28;46978;-79
2021/08/02 13:54:13;;;;;;;;;3.00;2.00;;;;;;;;4989804;28;46818;-80
2021/08/02 13:56:39;;;;;;;;;2.00;2.00;;;;;;;;4999431;28;47393;-80
2021/08/02 13:59:04;;;;;;;;;2.00;2.00;;;;;;;;4999563;28;46978;-79
2021/08/02 14:01:30;;;;;;;;;1.25;1.25;;;;;;;;4981880;28;46878;-78
2021/08/02 14:03:55;;;;;;;;;0.00;0.00;;;;;;;;4999529;28;46977;-78
2021/08/02 14:06:21;;;;;;;;;2.00;2.00;;;;;;;;4999487;28;46806;-79
2021/08/02 14:08:47;;;;;;;;;1.25;1.25;;;;;;;;5004671;28;47622;-78
2021/08/02 14:11:16;;;;;;;;;6.00;2.25;;;;;;;;5001370;28;47174;-78
2021/08/02 14:13:43;;;;;;;;;2.50;2.00;;;;;;;;4999447;28;47072;-77
2021/08/02 14:16:13;;;;;;;;;3.00;2.00;;;;;;;;4979934;28;46911;-78
2021/08/02 14:18:44;;;;;;;;;3.00;2.00;;;;;;;;4992307;28;46922;-79
2021/08/02 14:21:13;;;;;;;;;5.00;2.25;;;;;;;;4986423;28;46926;-78
2021/08/02 14:23:41;;;;;;;;;5.00;3.75;;;;;;;;4990937;28;47760;-78
2021/08/02 14:26:07;;;;;;;;;4.00;2.00;;;;;;;;4999489;28;46904;-78
2021/08/02 14:28:32;;;;;;;;;1.00;1.00;;;;;;;;5002655;28;47017;-78
2021/08/02 14:30:59;;;;;;;;;1.00;1.00;;;;;;;;5008727;28;46823;-78
2021/08/02 14:33:25;;;;;;;;;2.00;2.00;;;;;;;;4981183;28;46968;-78
2021/08/02 14:35:53;;;;;;;;;1.75;1.75;;;;;;;;5000151;28;47018;-78
2021/08/02 14:38:19;;;;;;;;;2.00;2.00;;;;;;;;4998703;28;48000;-77
2021/08/02 14:40:48;;;;;;;;;2.00;2.00;;;;;;;;4981105;28;47861;-79
2021/08/02 14:43:19;;;;;;;;;3.00;2.50;;;;;;;;5003791;28;46879;-78